createdAt,value
2022-11-20T00:01:39.463Z,98669.94
2022-11-20T00:04:11.251Z,98665.56
2022-11-20T00:06:39.425Z,98662.16
2022-11-20T00:09:07.778Z,98664.44
2022-11-20T00:11:36.013Z,98662.06
2022-11-20T00:14:05.270Z,98660.94
2022-11-20T00:16:35.220Z,98658.78
2022-11-20T00:19:03.606Z,98649.81
2022-11-20T00:21:34.014Z,98659.34
2022-11-20T00:24:02.219Z,98661.81
2022-11-20T00:26:31.509Z,98661.66
2022-11-20T00:29:01.592Z,98653.28
2022-11-20T00:31:31.173Z,98645.66
2022-11-20T00:34:00.375Z,98643.16
2022-11-20T00:36:30.212Z,98646.38
2022-11-20T00:39:01.081Z,98648.03
2022-11-20T00:41:30.918Z,98650.84
2022-11-20T00:43:59.884Z,98645.34
2022-11-20T00:46:29.632Z,98636.00
2022-11-20T00:48:58.359Z,98650.09
2022-11-20T00:51:28.903Z,98654.94
2022-11-20T00:54:01.293Z,98652.34
2022-11-20T00:56:32.688Z,98645.34
2022-11-20T00:59:03.251Z,98645.59
2022-11-20T01:01:31.790Z,98647.41
2022-11-20T01:04:02.348Z,98646.94
2022-11-20T01:06:33.304Z,98652.50
2022-11-20T01:09:05.066Z,98643.91
2022-11-20T01:11:36.412Z,98640.44
2022-11-20T01:14:06.335Z,98646.44
2022-11-20T01:16:38.427Z,98650.19
2022-11-20T01:19:09.443Z,98646.09
2022-11-20T01:21:39.232Z,98650.22
2022-11-20T01:24:13.131Z,98633.69
2022-11-20T01:26:44.814Z,98633.75
2022-11-20T01:29:21.082Z,98632.75
2022-11-20T01:31:50.336Z,98628.13
2022-11-20T01:34:20.502Z,98622.13
2022-11-20T01:36:49.481Z,98631.94
2022-11-20T01:39:22.767Z,98622.50
2022-11-20T01:42:10.493Z,98632.19
2022-11-20T01:44:55.471Z,98625.47
2022-11-20T01:47:29.585Z,98623.03
2022-11-20T01:50:01.948Z,98626.25
2022-11-20T01:52:35.035Z,98627.47
2022-11-20T01:55:09.912Z,98625.47
2022-11-20T01:57:39.811Z,98629.63
2022-11-20T02:00:10.807Z,98626.63
2022-11-20T02:02:41.429Z,98626.50
2022-11-20T02:05:19.631Z,98634.03
2022-11-20T02:07:49.319Z,98642.75
2022-11-20T02:10:19.429Z,98635.84
2022-11-20T02:13:05.331Z,98645.47
2022-11-20T02:15:35.378Z,98644.63
2022-11-20T02:18:04.811Z,98646.44
2022-11-20T02:20:32.978Z,98632.63
2022-11-20T02:23:07.684Z,98631.69
2022-11-20T02:25:44.808Z,98629.78
2022-11-20T02:28:14.743Z,98622.19
2022-11-20T02:30:42.881Z,98620.06
2022-11-20T02:33:11.397Z,98617.53
2022-11-20T02:35:48.641Z,98614.72
2022-11-20T02:38:18.471Z,98607.88
2022-11-20T02:40:52.637Z,98602.66
2022-11-20T02:43:22.807Z,98600.91
2022-11-20T02:45:52.593Z,98598.41
2022-11-20T02:48:22.965Z,98605.16
2022-11-20T02:50:54.569Z,98605.88
2022-11-20T02:53:23.071Z,98598.22
2022-11-20T02:55:53.003Z,98606.72
2022-11-20T02:58:21.087Z,98617.88
2022-11-20T03:00:49.569Z,98606.59
2022-11-20T03:03:18.250Z,98612.84
2022-11-20T03:05:46.339Z,98617.22
2022-11-20T03:08:15.030Z,98614.53
2022-11-20T03:10:43.520Z,98610.31
2022-11-20T03:13:13.545Z,98607.28
2022-11-20T03:15:41.846Z,98606.16
2022-11-20T03:18:10.226Z,98604.00
2022-11-20T03:20:38.387Z,98598.97
2022-11-20T03:23:06.545Z,98603.97
2022-11-20T03:25:35.099Z,98601.34
2022-11-20T03:28:04.752Z,98599.59
2022-11-20T03:30:34.975Z,98595.09
2022-11-20T03:33:03.119Z,98591.53
2022-11-20T03:35:31.353Z,98589.75
2022-11-20T03:38:00.243Z,98585.00
2022-11-20T03:40:28.375Z,98573.47
2022-11-20T03:42:56.523Z,98553.59
2022-11-20T03:45:25.194Z,98553.25
2022-11-20T03:47:55.063Z,98555.03
2022-11-20T03:50:23.502Z,98558.47
2022-11-20T03:52:51.887Z,98577.31
2022-11-20T03:55:20.533Z,98578.94
2022-11-20T03:57:49.072Z,98586.44
2022-11-20T04:00:18.167Z,98573.41
2022-11-20T04:02:46.537Z,98568.97
2022-11-20T04:05:16.769Z,98574.97
2022-11-20T04:07:45.206Z,98565.50
2022-11-20T04:10:13.735Z,98576.44
2022-11-20T04:12:42.159Z,98571.59
2022-11-20T04:15:11.196Z,98580.38
2022-11-20T04:17:39.488Z,98578.59
2022-11-20T04:20:09.227Z,98582.00
2022-11-20T04:22:39.714Z,98584.28
2022-11-20T04:25:08.574Z,98578.09
2022-11-20T04:27:36.667Z,98559.19
2022-11-20T04:30:05.981Z,98553.00
2022-11-20T04:32:35.145Z,98556.50
2022-11-20T04:35:03.642Z,98547.44
2022-11-20T04:37:31.930Z,98557.13
2022-11-20T04:40:03.084Z,98563.03
2022-11-20T04:42:31.465Z,98567.09
2022-11-20T04:45:00.811Z,98562.78
2022-11-20T04:47:29.245Z,98566.59
2022-11-20T04:49:57.920Z,98557.06
2022-11-20T04:52:29.040Z,98549.13
2022-11-20T04:55:00.351Z,98543.00
2022-11-20T04:57:29.959Z,98546.56
2022-11-20T04:59:58.960Z,98538.31
2022-11-20T05:02:27.783Z,98538.44
2022-11-20T05:04:56.614Z,98534.38
2022-11-20T05:07:26.042Z,98542.31
2022-11-20T05:09:54.197Z,98551.09
2022-11-20T05:12:22.348Z,98556.38
2022-11-20T05:14:52.343Z,98577.72
2022-11-20T05:17:20.716Z,98576.16
2022-11-20T05:19:52.952Z,98581.56
2022-11-20T05:22:23.890Z,98583.06
2022-11-20T05:24:52.084Z,98582.06
2022-11-20T05:27:20.800Z,98564.28
2022-11-20T05:29:49.087Z,98561.69
2022-11-20T05:32:18.928Z,98571.56
2022-11-20T05:34:47.395Z,98562.31
2022-11-20T05:37:15.876Z,98570.94
2022-11-20T05:39:44.038Z,98574.88
2022-11-20T05:42:29.622Z,98579.13
2022-11-20T05:44:57.967Z,98577.31
2022-11-20T05:47:28.004Z,98588.72
2022-11-20T05:49:58.043Z,98571.84
2022-11-20T05:52:27.230Z,98566.56
2022-11-20T05:54:55.894Z,98544.97
2022-11-20T05:57:25.151Z,98542.75
2022-11-20T05:59:53.276Z,98543.56
2022-11-20T06:02:21.936Z,98544.53
2022-11-20T06:04:51.707Z,98551.50
2022-11-20T06:07:19.865Z,98537.16
2022-11-20T06:09:48.166Z,98534.59
2022-11-20T06:12:16.734Z,98539.03
2022-11-20T06:14:45.018Z,98541.06
2022-11-20T06:17:15.472Z,98540.84
2022-11-20T06:19:46.232Z,98536.25
2022-11-20T06:22:16.558Z,98540.09
2022-11-20T06:24:47.813Z,98539.13
2022-11-20T06:27:16.030Z,98540.00
2022-11-20T06:29:44.715Z,98538.34
2022-11-20T06:32:14.510Z,98530.09
2022-11-20T06:34:43.124Z,98544.31
2022-11-20T06:37:15.761Z,98539.03
2022-11-20T06:39:43.837Z,98538.41
2022-11-20T06:42:12.136Z,98540.56
2022-11-20T06:44:40.506Z,98541.72
2022-11-20T06:47:08.955Z,98541.78
2022-11-20T06:49:39.522Z,98541.53
2022-11-20T06:52:07.611Z,98542.38
2022-11-20T06:54:37.734Z,98543.06
2022-11-20T06:57:06.019Z,98540.53
2022-11-20T06:59:34.472Z,98545.38
2022-11-20T07:02:04.982Z,98545.84
2022-11-20T07:04:33.095Z,98543.97
2022-11-20T07:07:05.374Z,98551.84
2022-11-20T07:09:33.922Z,98549.19
2022-11-20T07:12:03.829Z,98544.78
2022-11-20T07:14:31.934Z,98536.88
2022-11-20T07:17:00.393Z,98546.28
2022-11-20T07:19:28.720Z,98538.44
2022-11-20T07:21:57.148Z,98541.06
2022-11-20T07:24:25.888Z,98549.47
2022-11-20T07:27:02.037Z,98555.31
2022-11-20T07:29:32.114Z,98563.47
2022-11-20T07:32:00.679Z,98553.94
2022-11-20T07:34:29.131Z,98565.50
2022-11-20T07:36:57.713Z,98566.72
2022-11-20T07:39:25.931Z,98567.50
2022-11-20T07:41:54.436Z,98558.19
2022-11-20T07:44:23.580Z,98560.94
2022-11-20T07:46:53.315Z,98566.94
2022-11-20T07:49:21.748Z,98570.25
2022-11-20T07:51:52.738Z,98572.88
2022-11-20T07:54:21.081Z,98577.91
2022-11-20T07:56:49.779Z,98579.13
2022-11-20T07:59:18.348Z,98581.34
2022-11-20T08:01:47.320Z,98587.19
2022-11-20T08:04:17.866Z,98578.56
2022-11-20T08:06:46.316Z,98593.69
2022-11-20T08:09:14.674Z,98595.66
2022-11-20T08:12:00.341Z,98593.53
2022-11-20T08:14:29.878Z,98589.13
2022-11-20T08:16:58.230Z,98598.69
2022-11-20T08:19:28.496Z,98585.81
2022-11-20T08:21:57.825Z,98599.13
2022-11-20T08:24:27.545Z,98597.56
2022-11-20T08:26:59.884Z,98601.44
2022-11-20T08:29:29.331Z,98591.00
2022-11-20T08:31:58.019Z,98590.63
2022-11-20T08:34:27.972Z,98593.16
2022-11-20T08:36:56.526Z,98589.13
2022-11-20T08:39:24.850Z,98594.91
2022-11-20T08:41:53.402Z,98594.41
2022-11-20T08:44:21.856Z,98603.47
2022-11-20T08:46:50.644Z,98593.22
2022-11-20T08:49:19.232Z,98602.59
2022-11-20T08:51:52.808Z,98596.13
2022-11-20T08:54:23.117Z,98607.84
2022-11-20T08:56:51.455Z,98609.19
2022-11-20T08:59:43.403Z,98619.78
2022-11-20T09:02:08.688Z,98616.44
2022-11-20T09:04:37.286Z,98621.94
2022-11-20T09:07:07.787Z,98623.72
2022-11-20T09:09:36.401Z,98620.25
2022-11-20T09:12:04.755Z,98619.63
2022-11-20T09:14:33.366Z,98617.75
2022-11-20T09:17:02.551Z,98629.28
2022-11-20T09:19:38.002Z,98619.03
2022-11-20T09:22:07.637Z,98623.66
2022-11-20T09:24:36.266Z,98627.97
2022-11-20T09:27:07.492Z,98614.97
2022-11-20T09:29:35.817Z,98613.91
2022-11-20T09:32:04.511Z,98623.16
2022-11-20T09:34:33.257Z,98623.22
2022-11-20T09:37:06.410Z,98624.84
2022-11-20T09:39:40.253Z,98627.19
2022-11-20T09:42:23.239Z,98617.94
2022-11-20T09:45:03.217Z,98615.53
2022-11-20T09:47:49.705Z,98624.81
2022-11-20T09:50:30.108Z,98620.56
2022-11-20T09:53:13.880Z,98630.94
2022-11-20T09:55:44.239Z,98622.44
2022-11-20T09:58:25.026Z,98625.34
2022-11-20T10:00:57.587Z,98624.44
2022-11-20T10:03:39.994Z,98621.53
2022-11-20T10:06:14.934Z,98610.88
2022-11-20T10:08:47.411Z,98614.78
2022-11-20T10:11:25.848Z,98615.47
2022-11-20T10:14:09.268Z,98611.91
2022-11-20T10:16:46.727Z,98604.19
2022-11-20T10:19:32.964Z,98608.72
2022-11-20T10:22:16.013Z,98600.22
2022-11-20T10:24:55.790Z,98603.19
2022-11-20T10:28:00.380Z,98592.84
2022-11-20T10:30:31.312Z,98585.78
2022-11-20T10:33:06.993Z,98585.66
2022-11-20T10:35:42.706Z,98588.19
2022-11-20T10:38:19.785Z,98584.22
2022-11-20T10:40:51.597Z,98578.06
2022-11-20T10:43:28.195Z,98573.31
2022-11-20T10:46:03.220Z,98572.06
2022-11-20T10:48:35.563Z,98568.06
2022-11-20T10:51:17.342Z,98566.97
2022-11-20T10:53:57.534Z,98572.66
2022-11-20T10:56:32.478Z,98570.47
2022-11-20T10:59:25.482Z,98569.34
2022-11-20T11:01:57.076Z,98564.91
2022-11-20T11:04:39.330Z,98563.13
2022-11-20T11:07:15.676Z,98564.13
2022-11-20T11:09:49.176Z,98567.28
2022-11-20T11:12:17.662Z,98563.13
2022-11-20T11:14:50.023Z,98564.81
2022-11-20T11:17:25.912Z,98574.81
2022-11-20T11:20:06.708Z,98563.22
2022-11-20T11:22:37.193Z,98555.41
2022-11-20T11:25:06.748Z,98555.03
2022-11-20T11:27:35.029Z,98553.81
2022-11-20T11:30:18.063Z,98547.94
2022-11-20T11:32:46.887Z,98553.72
2022-11-20T11:35:27.184Z,98558.13
2022-11-20T11:38:05.542Z,98554.22
2022-11-20T11:40:36.552Z,98546.63
2022-11-20T11:43:31.858Z,98547.38
2022-11-20T11:46:07.490Z,98549.25
2022-11-20T11:48:35.964Z,98535.56
2022-11-20T11:51:04.163Z,98533.78
2022-11-20T11:53:33.664Z,98541.97
2022-11-20T11:56:10.766Z,98530.06
2022-11-20T11:58:48.045Z,98530.06
2022-11-20T12:01:30.460Z,98525.16
2022-11-20T12:04:06.227Z,98523.00
2022-11-20T12:06:39.151Z,98521.00
2022-11-20T12:09:13.195Z,98519.94
2022-11-20T12:11:47.863Z,98529.53
2022-11-20T12:14:25.118Z,98522.91
2022-11-20T12:16:56.791Z,98517.91
2022-11-20T12:19:25.153Z,98519.81
2022-11-20T12:22:07.007Z,98521.19
2022-11-20T12:24:48.142Z,98515.47
2022-11-20T12:27:55.872Z,98520.78
2022-11-20T12:30:25.953Z,98518.50
2022-11-20T12:33:15.075Z,98508.66
2022-11-20T12:36:08.981Z,98499.13
2022-11-20T12:39:00.775Z,98495.81
2022-11-20T12:42:02.974Z,98490.22
2022-11-20T12:45:10.274Z,98487.53
2022-11-20T12:47:52.623Z,98483.72
2022-11-20T12:50:53.424Z,98483.22
2022-11-20T12:53:35.823Z,98486.81
2022-11-20T12:56:19.250Z,98479.59
2022-11-20T12:58:59.352Z,98484.75
2022-11-20T13:01:45.291Z,98481.28
2022-11-20T13:04:27.127Z,98473.19
2022-11-20T13:06:58.633Z,98475.06
2022-11-20T13:09:28.459Z,98474.94
2022-11-20T13:12:08.227Z,98469.78
2022-11-20T13:14:42.949Z,98466.78
2022-11-20T13:17:19.659Z,98464.41
2022-11-20T13:19:52.656Z,98462.75
2022-11-20T13:22:29.325Z,98465.91
2022-11-20T13:24:59.274Z,98459.25
2022-11-20T13:27:27.325Z,98452.72
2022-11-20T13:30:05.862Z,98444.91
2022-11-20T13:32:34.223Z,98455.66
2022-11-20T13:35:05.117Z,98438.53
2022-11-20T13:37:36.712Z,98446.25
2022-11-20T13:40:24.547Z,98433.47
2022-11-20T13:43:07.006Z,98436.88
2022-11-20T13:45:35.184Z,98430.25
2022-11-20T13:48:07.074Z,98421.63
2022-11-20T13:50:50.749Z,98413.91
2022-11-20T13:53:40.506Z,98424.69
2022-11-20T13:56:19.478Z,98427.25
2022-11-20T13:58:56.715Z,98421.22
2022-11-20T14:01:27.799Z,98429.94
2022-11-20T14:04:06.068Z,98429.69
2022-11-20T14:06:43.422Z,98429.19
2022-11-20T14:09:27.196Z,98421.66
2022-11-20T14:11:55.313Z,98421.91
2022-11-20T14:14:26.681Z,98422.78
2022-11-20T14:17:07.130Z,98417.97
2022-11-20T14:19:38.267Z,98406.50
2022-11-20T14:22:13.327Z,98407.09
2022-11-20T14:24:44.768Z,98406.19
2022-11-20T14:27:16.141Z,98397.59
2022-11-20T14:29:46.286Z,98398.47
2022-11-20T14:32:18.787Z,98390.22
2022-11-20T14:34:50.934Z,98394.75
2022-11-20T14:37:24.274Z,98389.91
2022-11-20T14:39:57.173Z,98387.81
2022-11-20T14:42:28.137Z,98392.06
2022-11-20T14:45:01.435Z,98383.81
2022-11-20T14:47:32.953Z,98376.81
2022-11-20T14:50:07.339Z,98382.13
2022-11-20T14:52:38.181Z,98379.63
2022-11-20T14:55:16.453Z,98382.09
2022-11-20T14:57:44.562Z,98371.22
2022-11-20T15:00:23.186Z,98375.34
2022-11-20T15:02:53.774Z,98376.34
2022-11-20T15:05:24.086Z,98377.53
2022-11-20T15:07:55.108Z,98366.22
2022-11-20T15:10:28.494Z,98362.53
2022-11-20T15:13:01.123Z,98367.00
2022-11-20T15:15:35.181Z,98359.47
2022-11-20T15:18:04.599Z,98367.16
2022-11-20T15:20:34.822Z,98352.53
2022-11-20T15:23:03.881Z,98343.44
2022-11-20T15:25:34.481Z,98338.13
2022-11-20T15:28:03.345Z,98343.03
2022-11-20T15:30:31.668Z,98339.06
2022-11-20T15:33:01.170Z,98342.25
2022-11-20T15:35:29.704Z,98330.75
2022-11-20T15:37:58.128Z,98336.19
2022-11-20T15:40:26.336Z,98315.84
2022-11-20T15:43:13.277Z,98332.88
2022-11-20T15:45:45.111Z,98330.66
2022-11-20T15:48:17.042Z,98327.44
2022-11-20T15:50:52.358Z,98317.00
2022-11-20T15:53:22.254Z,98319.47
2022-11-20T15:55:56.817Z,98318.25
2022-11-20T15:58:27.772Z,98325.97
2022-11-20T16:00:59.816Z,98314.34
2022-11-20T16:03:29.432Z,98325.34
2022-11-20T16:06:01.287Z,98323.09
2022-11-20T16:08:29.832Z,98323.53
2022-11-20T16:10:59.470Z,98317.38
2022-11-20T16:13:48.679Z,98319.63
2022-11-20T16:16:24.266Z,98305.69
2022-11-20T16:18:52.869Z,98307.94
2022-11-20T16:21:21.404Z,98302.94
2022-11-20T16:23:52.582Z,98298.16
2022-11-20T16:26:21.910Z,98296.00
2022-11-20T16:28:52.051Z,98300.50
2022-11-20T16:31:22.035Z,98297.31
2022-11-20T16:33:54.516Z,98298.25
2022-11-20T16:36:24.451Z,98290.75
2022-11-20T16:38:55.006Z,98288.38
2022-11-20T16:41:23.646Z,98290.59
2022-11-20T16:43:54.686Z,98284.44
2022-11-20T16:46:25.874Z,98292.53
2022-11-20T16:49:00.439Z,98283.38
2022-11-20T16:51:32.236Z,98280.91
2022-11-20T16:54:03.678Z,98279.06
2022-11-20T16:56:32.732Z,98276.91
2022-11-20T16:59:04.264Z,98274.38
2022-11-20T17:01:33.261Z,98274.91
2022-11-20T17:04:03.175Z,98275.69
2022-11-20T17:06:33.089Z,98271.13
2022-11-20T17:09:02.180Z,98272.53
2022-11-20T17:11:30.960Z,98271.16
2022-11-20T17:14:00.993Z,98273.38
2022-11-20T17:16:31.941Z,98276.47
2022-11-20T17:19:05.870Z,98275.38
2022-11-20T17:21:36.244Z,98282.09
2022-11-20T17:24:06.599Z,98270.25
2022-11-20T17:26:36.356Z,98268.28
2022-11-20T17:29:08.202Z,98273.88
2022-11-20T17:31:40.062Z,98264.38
2022-11-20T17:34:12.616Z,98269.91
2022-11-20T17:36:45.180Z,98269.69
2022-11-20T17:39:14.988Z,98277.84
2022-11-20T17:41:43.339Z,98273.63
2022-11-20T17:44:12.763Z,98271.63
2022-11-20T17:46:42.409Z,98272.00
2022-11-20T17:49:10.958Z,98262.78
2022-11-20T17:51:40.943Z,98266.63
2022-11-20T17:54:10.620Z,98266.91
2022-11-20T17:56:56.823Z,98261.59
2022-11-20T17:59:25.525Z,98253.81
2022-11-20T18:01:58.591Z,98251.50
2022-11-20T18:04:31.061Z,98237.94
2022-11-20T18:06:59.710Z,98242.47
2022-11-20T18:09:27.918Z,98221.53
2022-11-20T18:11:57.720Z,98223.84
2022-11-20T18:14:32.958Z,98224.59
2022-11-20T18:17:06.133Z,98221.44
2022-11-20T18:19:42.654Z,98207.28
2022-11-20T18:22:17.888Z,98203.66
2022-11-20T18:24:46.930Z,98194.47
2022-11-20T18:27:17.357Z,98190.56
2022-11-20T18:29:48.701Z,98185.41
2022-11-20T18:32:19.670Z,98182.13
2022-11-20T18:34:47.987Z,98196.16
2022-11-20T18:37:16.834Z,98190.56
2022-11-20T18:39:45.871Z,98185.09
2022-11-20T18:42:33.831Z,98171.56
2022-11-20T18:45:04.424Z,98158.69
2022-11-20T18:47:38.203Z,98159.81
2022-11-20T18:50:09.040Z,98152.53
2022-11-20T18:52:41.510Z,98147.47
2022-11-20T18:55:12.203Z,98130.91
2022-11-20T18:57:41.767Z,98124.28
2022-11-20T19:00:12.014Z,98112.28
2022-11-20T19:02:43.182Z,98115.41
2022-11-20T19:05:12.786Z,98110.88
2022-11-20T19:07:41.380Z,98113.81
2022-11-20T19:10:10.486Z,98105.31
2022-11-20T19:12:38.670Z,98105.44
2022-11-20T19:15:08.408Z,98097.25
2022-11-20T19:17:38.727Z,98092.53
2022-11-20T19:20:10.441Z,98091.66
2022-11-20T19:22:38.950Z,98099.47
2022-11-20T19:25:08.383Z,98088.19
2022-11-20T19:27:37.121Z,98089.97
2022-11-20T19:30:07.776Z,98082.81
2022-11-20T19:32:37.046Z,98071.94
2022-11-20T19:35:06.271Z,98074.66
2022-11-20T19:37:36.829Z,98068.06
2022-11-20T19:40:06.155Z,98069.31
2022-11-20T19:42:36.828Z,98056.28
2022-11-20T19:45:06.126Z,98056.28
2022-11-20T19:48:00.985Z,98048.00
2022-11-20T19:50:23.340Z,98039.59
2022-11-20T19:52:59.102Z,98044.53
2022-11-20T19:55:27.919Z,98045.81
2022-11-20T19:57:56.358Z,98037.31
2022-11-20T20:00:31.057Z,98027.97
2022-11-20T20:03:01.063Z,98018.97
2022-11-20T20:05:29.687Z,98020.50
2022-11-20T20:08:02.490Z,98008.03
2022-11-20T20:10:31.612Z,98015.44
2022-11-20T20:13:04.710Z,98013.88
2022-11-20T20:15:33.377Z,98010.78
2022-11-20T20:18:01.984Z,98007.13
2022-11-20T20:20:30.092Z,97998.66
2022-11-20T20:23:00.073Z,97999.44
2022-11-20T20:25:28.559Z,97995.97
2022-11-20T20:27:56.868Z,97989.22
2022-11-20T20:30:25.505Z,97985.56
2022-11-20T20:32:56.443Z,97981.28
2022-11-20T20:35:25.702Z,97978.53
2022-11-20T20:37:53.737Z,97977.22
2022-11-20T20:40:23.820Z,97980.72
2022-11-20T20:42:52.227Z,97976.94
2022-11-20T20:45:20.831Z,97960.47
2022-11-20T20:47:49.249Z,97971.91
2022-11-20T20:50:17.784Z,97965.13
2022-11-20T20:52:46.447Z,97959.88
2022-11-20T20:55:15.318Z,97958.66
2022-11-20T20:57:45.687Z,97955.38
2022-11-20T21:00:15.207Z,97970.38
2022-11-20T21:02:43.450Z,97963.53
2022-11-20T21:05:11.966Z,97966.63
2022-11-20T21:08:00.367Z,97958.75
2022-11-20T21:10:30.667Z,97960.53
2022-11-20T21:13:02.906Z,97942.22
2022-11-20T21:15:31.366Z,97950.03
2022-11-20T21:18:00.056Z,97950.88
2022-11-20T21:20:47.317Z,97947.66
2022-11-20T21:23:15.722Z,97945.50
2022-11-20T21:25:45.546Z,97953.03
2022-11-20T21:28:18.209Z,97947.78
2022-11-20T21:30:47.812Z,97947.28
2022-11-20T21:33:17.412Z,97949.94
2022-11-20T21:35:46.652Z,97935.38
2022-11-20T21:38:15.278Z,97926.94
2022-11-20T21:40:44.023Z,97921.19
2022-11-20T21:43:19.287Z,97912.84
2022-11-20T21:45:47.567Z,97923.66
2022-11-20T21:48:16.268Z,97916.47
2022-11-20T21:50:45.078Z,97928.38
2022-11-20T21:53:13.515Z,97916.22
2022-11-20T21:55:42.248Z,97924.09
2022-11-20T21:58:10.782Z,97917.81
2022-11-20T22:00:40.619Z,97910.75
2022-11-20T22:03:11.255Z,97914.84
2022-11-20T22:05:39.414Z,97912.78
2022-11-20T22:08:08.473Z,97911.97
2022-11-20T22:10:37.467Z,97906.28
2022-11-20T22:13:23.147Z,97897.25
2022-11-20T22:16:00.933Z,97890.59
2022-11-20T22:18:29.687Z,97886.00
2022-11-20T22:20:58.337Z,97884.31
2022-11-20T22:23:26.503Z,97878.84
2022-11-20T22:25:54.672Z,97880.00
2022-11-20T22:28:24.049Z,97866.84
2022-11-20T22:30:54.286Z,97870.75
2022-11-20T22:33:22.715Z,97868.09
2022-11-20T22:35:51.241Z,97875.97
2022-11-20T22:38:21.070Z,97871.16
2022-11-20T22:40:49.546Z,97875.03
2022-11-20T22:43:18.360Z,97865.69
2022-11-20T22:45:47.153Z,97869.50
2022-11-20T22:48:19.900Z,97871.50
2022-11-20T22:50:48.455Z,97858.88
2022-11-20T22:53:16.944Z,97859.72
2022-11-20T22:55:53.343Z,97864.25
2022-11-20T22:58:23.785Z,97857.84
2022-11-20T23:00:54.525Z,97859.50
2022-11-20T23:03:25.740Z,97850.25
2022-11-20T23:05:53.970Z,97851.59
2022-11-20T23:08:22.462Z,97854.16
2022-11-20T23:10:52.151Z,97853.59
2022-11-20T23:13:20.540Z,97858.56
2022-11-20T23:15:55.826Z,97848.47
2022-11-20T23:18:25.960Z,97840.16
2022-11-20T23:20:54.180Z,97850.69
2022-11-20T23:23:22.668Z,97852.34
2022-11-20T23:25:51.450Z,97850.13
2022-11-20T23:28:20.105Z,97846.03
2022-11-20T23:30:49.199Z,97849.13
2022-11-20T23:33:18.134Z,97838.25
2022-11-20T23:35:49.688Z,97843.53
2022-11-20T23:38:18.307Z,97849.75
2022-11-20T23:40:49.821Z,97835.13
2022-11-20T23:43:18.833Z,97830.78
2022-11-20T23:45:48.949Z,97836.25
2022-11-20T23:48:18.156Z,97836.78
2022-11-20T23:50:47.312Z,97827.09
2022-11-20T23:53:17.590Z,97831.84
2022-11-20T23:55:48.487Z,97820.78
2022-11-20T23:58:17.473Z,97827.72
